Terminal Aerodrome Forecast
Issued by NWS Portland, OR

Home | Current Version | Previous Version | Text Only | Print | Product List | Glossary On
Versions: 1 2 3 4 5 6 7 8 9 10 11 12 13 14 15 16 17 18 19 20 21 22 23 24 25 26 27 28 29 30 31 32
233
FTUS46 KPQR 121809 AAA
TAFSLE
TAF AMD
KSLE 121809Z 1218/1318 14005KT 5SM -RA BR SCT025 BKN040 OVC050
      TEMPO 1218/1219 2SM RA BR
     FM122000 20008KT P6SM -SHRA SCT035 BKN050
     FM130400 18005KT P6SM BKN040
     FM131300 17006KT 6SM BR OVC025=

USA.gov is the U.S. government's official web portal to all federal, state and local government web resources and services.